METAR Data
IDs: Format: Raw Decoded Include TAF

Data at: 0130 UTC 24 Oct 2019

METAR for:KFFL (Fairfield Muni, IA, US)
Text:KFFL 240115Z AUTO 35016KT 10SM CLR 09/07 A2997 RMK A01
Temperature: 9.0°C ( 48°F)
Dewpoint: 7.0°C ( 45°F) [RH = 87%]
Pressure (altimeter):29.97 inches Hg (1015.0 mb)
Winds:from the N (350 degrees) at 18 MPH (16 knots; 8.2 m/s)
Visibility:10 or more sm (16+ km)
Ceiling:at least 12,000 feet AGL
Clouds:sky clear below 12,000 feet AGL
QC Flag:automated observation with no human augmentation